sensor_id;sensor_type;location;lat;lon;timestamp;P1;durP1;ratioP1;P2;durP2;ratioP2
12059;SDS011;6091;51.432;6.880;2024-01-11T00:01:00;4.45;;;4.05;;
12059;SDS011;6091;51.432;6.880;2024-01-11T00:03:28;4.72;;;4.28;;
12059;SDS011;6091;51.432;6.880;2024-01-11T00:05:55;4.70;;;4.30;;
12059;SDS011;6091;51.432;6.880;2024-01-11T00:08:22;4.57;;;4.15;;
12059;SDS011;6091;51.432;6.880;2024-01-11T00:10:49;4.32;;;3.92;;
12059;SDS011;6091;51.432;6.880;2024-01-11T00:13:16;4.00;;;3.65;;
12059;SDS011;6091;51.432;6.880;2024-01-11T00:15:43;4.97;;;4.47;;
12059;SDS011;6091;51.432;6.880;2024-01-11T00:18:11;3.88;;;3.50;;
12059;SDS011;6091;51.432;6.880;2024-01-11T00:20:38;4.45;;;4.05;;
12059;SDS011;6091;51.432;6.880;2024-01-11T00:23:05;4.38;;;3.97;;
12059;SDS011;6091;51.432;6.880;2024-01-11T00:25:33;3.92;;;3.53;;
12059;SDS011;6091;51.432;6.880;2024-01-11T00:28:01;4.30;;;3.90;;
12059;SDS011;6091;51.432;6.880;2024-01-11T00:30:29;4.43;;;4.03;;
12059;SDS011;6091;51.432;6.880;2024-01-11T00:32:56;4.40;;;4.00;;
12059;SDS011;6091;51.432;6.880;2024-01-11T00:35:23;4.18;;;3.78;;
12059;SDS011;6091;51.432;6.880;2024-01-11T00:37:51;4.55;;;4.15;;
12059;SDS011;6091;51.432;6.880;2024-01-11T00:40:18;4.90;;;4.40;;
12059;SDS011;6091;51.432;6.880;2024-01-11T00:42:45;4.90;;;4.40;;
12059;SDS011;6091;51.432;6.880;2024-01-11T00:45:12;4.47;;;4.07;;
12059;SDS011;6091;51.432;6.880;2024-01-11T00:47:39;4.22;;;3.83;;
12059;SDS011;6091;51.432;6.880;2024-01-11T00:50:07;4.55;;;4.15;;
12059;SDS011;6091;51.432;6.880;2024-01-11T00:52:36;4.53;;;4.13;;
12059;SDS011;6091;51.432;6.880;2024-01-11T00:55:03;4.90;;;3.90;;
12059;SDS011;6091;51.432;6.880;2024-01-11T00:57:30;4.75;;;4.30;;
12059;SDS011;6091;51.432;6.880;2024-01-11T00:59:58;4.70;;;4.30;;
12059;SDS011;6091;51.432;6.880;2024-01-11T01:02:26;4.50;;;4.10;;
12059;SDS011;6091;51.432;6.880;2024-01-11T01:04:53;4.10;;;3.58;;
12059;SDS011;6091;51.432;6.880;2024-01-11T01:07:20;4.22;;;3.83;;
12059;SDS011;6091;51.432;6.880;2024-01-11T01:09:47;4.57;;;4.18;;
12059;SDS011;6091;51.432;6.880;2024-01-11T01:12:15;4.13;;;3.72;;
12059;SDS011;6091;51.432;6.880;2024-01-11T01:14:44;4.60;;;4.20;;
12059;SDS011;6091;51.432;6.880;2024-01-11T01:17:12;4.22;;;3.83;;
12059;SDS011;6091;51.432;6.880;2024-01-11T01:19:43;4.35;;;3.95;;
12059;SDS011;6091;51.432;6.880;2024-01-11T01:22:10;5.07;;;4.22;;
12059;SDS011;6091;51.432;6.880;2024-01-11T01:24:38;4.32;;;3.92;;
12059;SDS011;6091;51.432;6.880;2024-01-11T01:27:05;4.28;;;3.88;;
12059;SDS011;6091;51.432;6.880;2024-01-11T01:29:33;4.30;;;3.72;;
12059;SDS011;6091;51.432;6.880;2024-01-11T01:32:00;4.78;;;4.38;;
12059;SDS011;6091;51.432;6.880;2024-01-11T01:34:27;4.47;;;4.07;;
12059;SDS011;6091;51.432;6.880;2024-01-11T01:36:55;4.30;;;3.75;;
12059;SDS011;6091;51.432;6.880;2024-01-11T01:39:22;4.22;;;3.83;;
12059;SDS011;6091;51.432;6.880;2024-01-11T01:41:49;4.43;;;4.03;;
12059;SDS011;6091;51.432;6.880;2024-01-11T01:44:16;4.20;;;3.90;;
12059;SDS011;6091;51.432;6.880;2024-01-11T01:46:43;4.80;;;4.28;;
12059;SDS011;6091;51.432;6.880;2024-01-11T01:49:11;4.60;;;4.20;;
12059;SDS011;6091;51.432;6.880;2024-01-11T01:51:39;4.80;;;4.30;;
12059;SDS011;6091;51.432;6.880;2024-01-11T01:54:07;4.57;;;4.18;;
12059;SDS011;6091;51.432;6.880;2024-01-11T01:56:34;4.75;;;4.10;;
12059;SDS011;6091;51.432;6.880;2024-01-11T01:59:01;4.57;;;4.18;;
12059;SDS011;6091;51.432;6.880;2024-01-11T02:01:31;4.32;;;3.92;;
12059;SDS011;6091;51.432;6.880;2024-01-11T02:04:00;5.00;;;4.50;;
12059;SDS011;6091;51.432;6.880;2024-01-11T02:06:28;4.82;;;4.32;;
12059;SDS011;6091;51.432;6.880;2024-01-11T02:09:00;5.00;;;4.50;;
12059;SDS011;6091;51.432;6.880;2024-01-11T02:11:30;4.65;;;4.25;;
12059;SDS011;6091;51.432;6.880;2024-01-11T02:13:57;4.90;;;4.50;;
12059;SDS011;6091;51.432;6.880;2024-01-11T02:16:25;4.93;;;4.50;;
12059;SDS011;6091;51.432;6.880;2024-01-11T02:18:52;4.80;;;4.40;;
12059;SDS011;6091;51.432;6.880;2024-01-11T02:21:21;4.60;;;4.20;;
12059;SDS011;6091;51.432;6.880;2024-01-11T02:23:54;5.55;;;4.95;;
12059;SDS011;6091;51.432;6.880;2024-01-11T02:26:31;4.28;;;3.92;;
12059;SDS011;6091;51.432;6.880;2024-01-11T02:29:00;4.80;;;4.40;;
12059;SDS011;6091;51.432;6.880;2024-01-11T02:31:27;5.05;;;4.35;;
12059;SDS011;6091;51.432;6.880;2024-01-11T02:33:55;4.70;;;4.30;;
12059;SDS011;6091;51.432;6.880;2024-01-11T02:36:23;4.40;;;4.00;;
12059;SDS011;6091;51.432;6.880;2024-01-11T02:38:52;4.72;;;4.18;;
12059;SDS011;6091;51.432;6.880;2024-01-11T02:41:20;4.70;;;4.30;;
12059;SDS011;6091;51.432;6.880;2024-01-11T02:43:49;4.68;;;4.28;;
12059;SDS011;6091;51.432;6.880;2024-01-11T02:46:16;4.85;;;4.38;;
12059;SDS011;6091;51.432;6.880;2024-01-11T02:48:43;4.65;;;4.18;;
12059;SDS011;6091;51.432;6.880;2024-01-11T02:51:11;4.40;;;4.00;;
12059;SDS011;6091;51.432;6.880;2024-01-11T02:53:38;4.97;;;4.57;;
12059;SDS011;6091;51.432;6.880;2024-01-11T02:56:06;4.43;;;4.03;;
12059;SDS011;6091;51.432;6.880;2024-01-11T02:58:34;5.25;;;4.75;;
12059;SDS011;6091;51.432;6.880;2024-01-11T03:01:02;4.93;;;4.25;;
12059;SDS011;6091;51.432;6.880;2024-01-11T03:03:30;4.70;;;4.30;;
12059;SDS011;6091;51.432;6.880;2024-01-11T03:05:57;5.40;;;4.88;;
12059;SDS011;6091;51.432;6.880;2024-01-11T03:08:24;4.30;;;3.90;;
12059;SDS011;6091;51.432;6.880;2024-01-11T03:10:52;5.32;;;4.80;;
12059;SDS011;6091;51.432;6.880;2024-01-11T03:13:20;5.25;;;4.75;;
12059;SDS011;6091;51.432;6.880;2024-01-11T03:15:49;4.47;;;4.07;;
12059;SDS011;6091;51.432;6.880;2024-01-11T03:18:16;4.75;;;4.35;;
12059;SDS011;6091;51.432;6.880;2024-01-11T03:20:44;4.05;;;3.72;;
12059;SDS011;6091;51.432;6.880;2024-01-11T03:23:11;4.63;;;4.22;;
12059;SDS011;6091;51.432;6.880;2024-01-11T03:25:38;4.60;;;4.20;;
12059;SDS011;6091;51.432;6.880;2024-01-11T03:28:05;4.60;;;4.20;;
12059;SDS011;6091;51.432;6.880;2024-01-11T03:30:32;4.47;;;4.07;;
12059;SDS011;6091;51.432;6.880;2024-01-11T03:32:59;4.65;;;4.25;;
12059;SDS011;6091;51.432;6.880;2024-01-11T03:35:26;4.45;;;4.10;;
12059;SDS011;6091;51.432;6.880;2024-01-11T03:37:54;4.93;;;4.43;;
12059;SDS011;6091;51.432;6.880;2024-01-11T03:40:21;4.53;;;4.13;;
12059;SDS011;6091;51.432;6.880;2024-01-11T03:42:48;4.97;;;4.47;;
12059;SDS011;6091;51.432;6.880;2024-01-11T03:45:18;4.80;;;4.18;;
12059;SDS011;6091;51.432;6.880;2024-01-11T03:47:49;4.13;;;3.80;;
12059;SDS011;6091;51.432;6.880;2024-01-11T03:50:16;4.63;;;4.22;;
12059;SDS011;6091;51.432;6.880;2024-01-11T03:52:43;4.30;;;3.90;;
12059;SDS011;6091;51.432;6.880;2024-01-11T03:55:10;5.25;;;4.75;;
12059;SDS011;6091;51.432;6.880;2024-01-11T03:57:37;5.03;;;4.53;;
12059;SDS011;6091;51.432;6.880;2024-01-11T04:00:05;5.03;;;4.63;;
12059;SDS011;6091;51.432;6.880;2024-01-11T04:02:36;4.32;;;4.00;;
12059;SDS011;6091;51.432;6.880;2024-01-11T04:05:04;5.10;;;4.68;;
12059;SDS011;6091;51.432;6.880;2024-01-11T04:07:32;4.95;;;4.45;;
12059;SDS011;6091;51.432;6.880;2024-01-11T04:09:59;4.78;;;4.30;;
12059;SDS011;6091;51.432;6.880;2024-01-11T04:12:26;5.25;;;4.75;;
12059;SDS011;6091;51.432;6.880;2024-01-11T04:14:53;4.70;;;4.30;;
12059;SDS011;6091;51.432;6.880;2024-01-11T04:17:20;4.78;;;4.38;;
12059;SDS011;6091;51.432;6.880;2024-01-11T04:19:48;5.03;;;4.53;;
12059;SDS011;6091;51.432;6.880;2024-01-11T04:22:15;5.35;;;4.85;;
12059;SDS011;6091;51.432;6.880;2024-01-11T04:24:42;5.15;;;4.65;;
12059;SDS011;6091;51.432;6.880;2024-01-11T04:27:10;4.90;;;4.45;;
12059;SDS011;6091;51.432;6.880;2024-01-11T04:29:37;4.55;;;4.15;;
12059;SDS011;6091;51.432;6.880;2024-01-11T04:32:05;4.72;;;4.22;;
12059;SDS011;6091;51.432;6.880;2024-01-11T04:34:32;3.90;;;3.50;;
12059;SDS011;6091;51.432;6.880;2024-01-11T04:36:59;4.03;;;3.70;;
12059;SDS011;6091;51.432;6.880;2024-01-11T04:39:26;4.97;;;4.50;;
12059;SDS011;6091;51.432;6.880;2024-01-11T04:41:53;4.35;;;3.95;;
12059;SDS011;6091;51.432;6.880;2024-01-11T04:44:20;5.28;;;4.78;;
12059;SDS011;6091;51.432;6.880;2024-01-11T04:46:48;5.22;;;4.75;;
12059;SDS011;6091;51.432;6.880;2024-01-11T04:49:15;5.35;;;4.82;;
12059;SDS011;6091;51.432;6.880;2024-01-11T04:51:45;4.88;;;4.47;;
12059;SDS011;6091;51.432;6.880;2024-01-11T04:54:12;4.97;;;4.47;;
12059;SDS011;6091;51.432;6.880;2024-01-11T04:56:39;4.68;;;4.28;;
12059;SDS011;6091;51.432;6.880;2024-01-11T04:59:07;5.13;;;4.63;;
12059;SDS011;6091;51.432;6.880;2024-01-11T05:01:35;5.10;;;4.60;;
12059;SDS011;6091;51.432;6.880;2024-01-11T05:04:02;4.72;;;4.32;;
12059;SDS011;6091;51.432;6.880;2024-01-11T05:06:36;4.93;;;4.25;;
12059;SDS011;6091;51.432;6.880;2024-01-11T05:09:04;5.00;;;4.50;;
12059;SDS011;6091;51.432;6.880;2024-01-11T05:11:31;5.15;;;4.65;;
12059;SDS011;6091;51.432;6.880;2024-01-11T05:13:58;4.78;;;4.30;;
12059;SDS011;6091;51.432;6.880;2024-01-11T05:16:29;4.93;;;4.20;;
12059;SDS011;6091;51.432;6.880;2024-01-11T05:19:01;4.65;;;4.25;;
12059;SDS011;6091;51.432;6.880;2024-01-11T05:21:29;5.35;;;4.85;;
12059;SDS011;6091;51.432;6.880;2024-01-11T05:23:56;5.45;;;4.95;;
12059;SDS011;6091;51.432;6.880;2024-01-11T05:26:23;5.10;;;4.63;;
12059;SDS011;6091;51.432;6.880;2024-01-11T05:28:50;4.93;;;4.38;;
12059;SDS011;6091;51.432;6.880;2024-01-11T05:31:17;4.68;;;4.22;;
12059;SDS011;6091;51.432;6.880;2024-01-11T05:33:45;5.07;;;4.57;;
12059;SDS011;6091;51.432;6.880;2024-01-11T05:36:13;4.78;;;4.38;;
12059;SDS011;6091;51.432;6.880;2024-01-11T05:38:40;4.90;;;4.40;;
12059;SDS011;6091;51.432;6.880;2024-01-11T05:41:08;5.68;;;5.07;;
12059;SDS011;6091;51.432;6.880;2024-01-11T05:43:37;4.88;;;4.43;;
12059;SDS011;6091;51.432;6.880;2024-01-11T05:46:07;5.25;;;4.75;;
12059;SDS011;6091;51.432;6.880;2024-01-11T05:48:34;4.97;;;4.57;;
12059;SDS011;6091;51.432;6.880;2024-01-11T05:51:02;4.75;;;4.35;;
12059;SDS011;6091;51.432;6.880;2024-01-11T05:53:29;4.85;;;4.35;;
12059;SDS011;6091;51.432;6.880;2024-01-11T05:55:56;5.50;;;5.00;;
12059;SDS011;6091;51.432;6.880;2024-01-11T05:58:23;4.75;;;4.25;;
12059;SDS011;6091;51.432;6.880;2024-01-11T06:00:52;5.15;;;4.65;;
12059;SDS011;6091;51.432;6.880;2024-01-11T06:03:19;5.15;;;4.65;;
12059;SDS011;6091;51.432;6.880;2024-01-11T06:05:47;4.85;;;4.45;;
12059;SDS011;6091;51.432;6.880;2024-01-11T06:08:15;4.97;;;4.47;;
12059;SDS011;6091;51.432;6.880;2024-01-11T06:10:43;4.82;;;4.35;;
12059;SDS011;6091;51.432;6.880;2024-01-11T06:13:10;4.70;;;4.30;;
12059;SDS011;6091;51.432;6.880;2024-01-11T06:15:37;5.05;;;4.55;;
12059;SDS011;6091;51.432;6.880;2024-01-11T06:18:05;4.70;;;4.30;;
12059;SDS011;6091;51.432;6.880;2024-01-11T06:20:32;4.47;;;4.07;;
12059;SDS011;6091;51.432;6.880;2024-01-11T06:22:59;4.53;;;4.13;;
12059;SDS011;6091;51.432;6.880;2024-01-11T06:25:26;5.20;;;4.57;;
12059;SDS011;6091;51.432;6.880;2024-01-11T06:27:54;5.20;;;4.70;;
12059;SDS011;6091;51.432;6.880;2024-01-11T06:30:21;5.15;;;4.65;;
12059;SDS011;6091;51.432;6.880;2024-01-11T06:32:50;5.13;;;4.63;;
12059;SDS011;6091;51.432;6.880;2024-01-11T06:35:17;4.72;;;4.30;;
12059;SDS011;6091;51.432;6.880;2024-01-11T06:37:45;4.75;;;4.35;;
12059;SDS011;6091;51.432;6.880;2024-01-11T06:40:12;4.75;;;4.35;;
12059;SDS011;6091;51.432;6.880;2024-01-11T06:42:40;5.07;;;4.63;;
12059;SDS011;6091;51.432;6.880;2024-01-11T06:45:07;5.03;;;4.55;;
12059;SDS011;6091;51.432;6.880;2024-01-11T06:47:35;5.35;;;4.85;;
12059;SDS011;6091;51.432;6.880;2024-01-11T06:50:02;4.65;;;4.25;;
12059;SDS011;6091;51.432;6.880;2024-01-11T06:52:30;5.15;;;4.65;;
12059;SDS011;6091;51.432;6.880;2024-01-11T06:54:58;5.35;;;4.85;;
12059;SDS011;6091;51.432;6.880;2024-01-11T06:57:25;5.10;;;4.60;;
12059;SDS011;6091;51.432;6.880;2024-01-11T06:59:52;4.65;;;4.25;;
12059;SDS011;6091;51.432;6.880;2024-01-11T07:02:19;5.22;;;4.82;;
12059;SDS011;6091;51.432;6.880;2024-01-11T07:04:46;4.82;;;4.43;;
12059;SDS011;6091;51.432;6.880;2024-01-11T07:07:14;4.97;;;4.53;;
12059;SDS011;6091;51.432;6.880;2024-01-11T07:09:41;5.65;;;5.05;;
12059;SDS011;6091;51.432;6.880;2024-01-11T07:12:08;4.93;;;4.50;;
12059;SDS011;6091;51.432;6.880;2024-01-11T07:14:35;5.50;;;5.00;;
12059;SDS011;6091;51.432;6.880;2024-01-11T07:17:03;5.13;;;4.72;;
12059;SDS011;6091;51.432;6.880;2024-01-11T07:19:30;6.10;;;5.60;;
12059;SDS011;6091;51.432;6.880;2024-01-11T07:21:58;5.70;;;5.20;;
12059;SDS011;6091;51.432;6.880;2024-01-11T07:24:25;4.78;;;4.38;;
12059;SDS011;6091;51.432;6.880;2024-01-11T07:26:52;7.82;;;5.18;;
12059;SDS011;6091;51.432;6.880;2024-01-11T07:29:20;5.10;;;4.65;;
12059;SDS011;6091;51.432;6.880;2024-01-11T07:31:47;5.18;;;4.70;;
12059;SDS011;6091;51.432;6.880;2024-01-11T07:34:14;5.53;;;5.03;;
12059;SDS011;6091;51.432;6.880;2024-01-11T07:36:42;5.40;;;5.00;;
12059;SDS011;6091;51.432;6.880;2024-01-11T07:39:09;5.97;;;5.47;;
12059;SDS011;6091;51.432;6.880;2024-01-11T07:41:36;5.50;;;5.00;;
12059;SDS011;6091;51.432;6.880;2024-01-11T07:44:03;5.15;;;4.72;;
12059;SDS011;6091;51.432;6.880;2024-01-11T07:46:30;5.07;;;4.68;;
12059;SDS011;6091;51.432;6.880;2024-01-11T07:49:07;5.25;;;4.85;;
12059;SDS011;6091;51.432;6.880;2024-01-11T07:51:35;5.35;;;4.88;;
12059;SDS011;6091;51.432;6.880;2024-01-11T07:54:02;5.47;;;4.95;;
12059;SDS011;6091;51.432;6.880;2024-01-11T07:56:29;4.97;;;4.57;;
12059;SDS011;6091;51.432;6.880;2024-01-11T07:58:56;5.38;;;4.88;;
12059;SDS011;6091;51.432;6.880;2024-01-11T08:01:23;5.25;;;4.75;;
12059;SDS011;6091;51.432;6.880;2024-01-11T08:03:51;5.65;;;4.75;;
12059;SDS011;6091;51.432;6.880;2024-01-11T08:06:19;5.20;;;4.70;;
12059;SDS011;6091;51.432;6.880;2024-01-11T08:08:46;5.22;;;4.72;;
12059;SDS011;6091;51.432;6.880;2024-01-11T08:11:19;5.13;;;4.70;;
12059;SDS011;6091;51.432;6.880;2024-01-11T08:13:47;5.15;;;4.70;;
12059;SDS011;6091;51.432;6.880;2024-01-11T08:16:17;5.97;;;5.38;;
12059;SDS011;6091;51.432;6.880;2024-01-11T08:18:45;5.20;;;4.80;;
12059;SDS011;6091;51.432;6.880;2024-01-11T08:21:15;6.18;;;5.57;;
12059;SDS011;6091;51.432;6.880;2024-01-11T08:23:42;7.32;;;6.60;;
12059;SDS011;6091;51.432;6.880;2024-01-11T08:26:12;7.60;;;6.90;;
12059;SDS011;6091;51.432;6.880;2024-01-11T08:28:48;7.82;;;7.10;;
12059;SDS011;6091;51.432;6.880;2024-01-11T08:31:15;7.18;;;6.47;;
12059;SDS011;6091;51.432;6.880;2024-01-11T08:33:42;9.13;;;6.40;;
12059;SDS011;6091;51.432;6.880;2024-01-11T08:36:09;7.47;;;6.47;;
12059;SDS011;6091;51.432;6.880;2024-01-11T08:38:38;7.07;;;6.20;;
12059;SDS011;6091;51.432;6.880;2024-01-11T08:41:07;8.82;;;6.50;;
12059;SDS011;6091;51.432;6.880;2024-01-11T08:43:35;6.03;;;5.43;;
12059;SDS011;6091;51.432;6.880;2024-01-11T08:46:03;7.50;;;5.95;;
12059;SDS011;6091;51.432;6.880;2024-01-11T08:48:30;6.88;;;6.18;;
12059;SDS011;6091;51.432;6.880;2024-01-11T08:50:58;7.03;;;6.32;;
12059;SDS011;6091;51.432;6.880;2024-01-11T08:53:25;9.38;;;6.15;;
12059;SDS011;6091;51.432;6.880;2024-01-11T08:55:53;6.90;;;5.65;;
12059;SDS011;6091;51.432;6.880;2024-01-11T08:58:20;6.90;;;6.13;;
12059;SDS011;6091;51.432;6.880;2024-01-11T09:00:47;6.45;;;5.85;;
12059;SDS011;6091;51.432;6.880;2024-01-11T09:03:16;6.25;;;5.55;;
12059;SDS011;6091;51.432;6.880;2024-01-11T09:05:44;6.97;;;5.40;;
12059;SDS011;6091;51.432;6.880;2024-01-11T09:08:11;7.32;;;5.90;;
12059;SDS011;6091;51.432;6.880;2024-01-11T09:10:39;9.68;;;6.28;;
12059;SDS011;6091;51.432;6.880;2024-01-11T09:13:08;5.80;;;5.03;;
12059;SDS011;6091;51.432;6.880;2024-01-11T09:15:39;6.70;;;6.03;;
12059;SDS011;6091;51.432;6.880;2024-01-11T09:18:06;6.55;;;5.78;;
12059;SDS011;6091;51.432;6.880;2024-01-11T09:20:33;6.70;;;5.57;;
12059;SDS011;6091;51.432;6.880;2024-01-11T09:23:02;6.70;;;5.97;;
12059;SDS011;6091;51.432;6.880;2024-01-11T09:25:30;7.80;;;6.20;;
12059;SDS011;6091;51.432;6.880;2024-01-11T09:27:58;8.68;;;6.55;;
12059;SDS011;6091;51.432;6.880;2024-01-11T09:30:29;6.82;;;6.13;;
12059;SDS011;6091;51.432;6.880;2024-01-11T09:32:57;9.63;;;6.30;;
12059;SDS011;6091;51.432;6.880;2024-01-11T09:35:25;8.05;;;5.78;;
12059;SDS011;6091;51.432;6.880;2024-01-11T09:37:52;6.63;;;5.50;;
12059;SDS011;6091;51.432;6.880;2024-01-11T09:40:19;7.78;;;6.22;;
12059;SDS011;6091;51.432;6.880;2024-01-11T09:42:47;7.68;;;6.50;;
12059;SDS011;6091;51.432;6.880;2024-01-11T09:45:16;6.35;;;5.75;;
12059;SDS011;6091;51.432;6.880;2024-01-11T09:47:44;8.48;;;5.95;;
12059;SDS011;6091;51.432;6.880;2024-01-11T09:50:16;7.50;;;6.75;;
12059;SDS011;6091;51.432;6.880;2024-01-11T09:52:45;6.65;;;6.00;;
12059;SDS011;6091;51.432;6.880;2024-01-11T09:55:17;7.90;;;5.78;;
12059;SDS011;6091;51.432;6.880;2024-01-11T09:57:46;7.93;;;6.10;;
12059;SDS011;6091;51.432;6.880;2024-01-11T10:00:18;7.20;;;6.22;;
12059;SDS011;6091;51.432;6.880;2024-01-11T10:02:50;8.10;;;6.28;;
12059;SDS011;6091;51.432;6.880;2024-01-11T10:05:18;7.55;;;6.68;;
12059;SDS011;6091;51.432;6.880;2024-01-11T10:07:46;8.93;;;6.03;;
12059;SDS011;6091;51.432;6.880;2024-01-11T10:10:13;7.78;;;6.18;;
12059;SDS011;6091;51.432;6.880;2024-01-11T10:12:47;6.50;;;5.90;;
12059;SDS011;6091;51.432;6.880;2024-01-11T10:15:15;8.88;;;5.97;;
12059;SDS011;6091;51.432;6.880;2024-01-11T10:17:42;7.20;;;6.15;;
12059;SDS011;6091;51.432;6.880;2024-01-11T10:20:14;7.13;;;6.25;;
12059;SDS011;6091;51.432;6.880;2024-01-11T10:22:44;7.85;;;6.18;;
12059;SDS011;6091;51.432;6.880;2024-01-11T10:25:13;6.05;;;5.45;;
12059;SDS011;6091;51.432;6.880;2024-01-11T10:27:43;8.77;;;5.90;;
12059;SDS011;6091;51.432;6.880;2024-01-11T10:30:15;6.68;;;5.78;;
12059;SDS011;6091;51.432;6.880;2024-01-11T10:32:45;6.70;;;5.55;;
12059;SDS011;6091;51.432;6.880;2024-01-11T10:35:14;8.00;;;6.20;;
12059;SDS011;6091;51.432;6.880;2024-01-11T10:37:44;6.57;;;5.97;;
12059;SDS011;6091;51.432;6.880;2024-01-11T10:40:13;8.38;;;7.30;;
12059;SDS011;6091;51.432;6.880;2024-01-11T10:42:50;7.85;;;6.25;;
12059;SDS011;6091;51.432;6.880;2024-01-11T10:45:19;6.60;;;6.00;;
12059;SDS011;6091;51.432;6.880;2024-01-11T10:47:53;7.18;;;5.90;;
12059;SDS011;6091;51.432;6.880;2024-01-11T10:50:30;8.65;;;5.60;;
12059;SDS011;6091;51.432;6.880;2024-01-11T10:53:03;8.57;;;7.18;;
12059;SDS011;6091;51.432;6.880;2024-01-11T10:55:35;10.82;;;6.28;;
12059;SDS011;6091;51.432;6.880;2024-01-11T10:58:05;6.03;;;5.43;;
12059;SDS011;6091;51.432;6.880;2024-01-11T11:00:34;6.68;;;5.45;;
12059;SDS011;6091;51.432;6.880;2024-01-11T11:03:05;7.18;;;5.78;;
12059;SDS011;6091;51.432;6.880;2024-01-11T11:05:34;6.65;;;5.60;;
12059;SDS011;6091;51.432;6.880;2024-01-11T11:08:05;6.75;;;6.03;;
12059;SDS011;6091;51.432;6.880;2024-01-11T11:10:36;6.20;;;5.60;;
12059;SDS011;6091;51.432;6.880;2024-01-11T11:13:05;6.03;;;5.45;;
12059;SDS011;6091;51.432;6.880;2024-01-11T11:15:35;6.50;;;5.53;;
12059;SDS011;6091;51.432;6.880;2024-01-11T11:18:04;6.03;;;5.43;;
12059;SDS011;6091;51.432;6.880;2024-01-11T11:20:34;7.93;;;6.97;;
12059;SDS011;6091;51.432;6.880;2024-01-11T11:23:04;6.82;;;5.78;;
12059;SDS011;6091;51.432;6.880;2024-01-11T11:25:34;7.72;;;6.95;;
12059;SDS011;6091;51.432;6.880;2024-01-11T11:28:01;6.68;;;6.07;;
12059;SDS011;6091;51.432;6.880;2024-01-11T11:30:32;6.85;;;6.13;;
12059;SDS011;6091;51.432;6.880;2024-01-11T11:33:11;6.25;;;5.68;;
12059;SDS011;6091;51.432;6.880;2024-01-11T11:35:47;6.15;;;5.43;;
12059;SDS011;6091;51.432;6.880;2024-01-11T11:38:21;6.95;;;5.32;;
12059;SDS011;6091;51.432;6.880;2024-01-11T11:40:52;5.97;;;5.32;;
12059;SDS011;6091;51.432;6.880;2024-01-11T11:43:21;6.05;;;5.45;;
12059;SDS011;6091;51.432;6.880;2024-01-11T11:45:52;7.75;;;6.50;;
12059;SDS011;6091;51.432;6.880;2024-01-11T11:51:16;6.18;;;5.65;;
12059;SDS011;6091;51.432;6.880;2024-01-11T11:53:47;5.85;;;5.18;;
12059;SDS011;6091;51.432;6.880;2024-01-11T11:56:22;6.47;;;5.25;;
12059;SDS011;6091;51.432;6.880;2024-01-11T11:58:50;5.82;;;5.28;;
12059;SDS011;6091;51.432;6.880;2024-01-11T12:01:21;6.40;;;5.80;;
12059;SDS011;6091;51.432;6.880;2024-01-11T12:03:48;5.68;;;4.93;;
12059;SDS011;6091;51.432;6.880;2024-01-11T12:06:16;6.43;;;5.70;;
12059;SDS011;6091;51.432;6.880;2024-01-11T12:08:47;10.55;;;5.70;;
12059;SDS011;6091;51.432;6.880;2024-01-11T12:11:19;6.18;;;5.45;;
12059;SDS011;6091;51.432;6.880;2024-01-11T12:13:49;7.32;;;6.63;;
12059;SDS011;6091;51.432;6.880;2024-01-11T12:16:18;6.45;;;5.80;;
12059;SDS011;6091;51.432;6.880;2024-01-11T12:18:48;6.30;;;5.70;;
12059;SDS011;6091;51.432;6.880;2024-01-11T12:21:16;6.95;;;5.15;;
12059;SDS011;6091;51.432;6.880;2024-01-11T12:23:44;6.28;;;5.70;;
12059;SDS011;6091;51.432;6.880;2024-01-11T12:26:12;6.55;;;5.95;;
12059;SDS011;6091;51.432;6.880;2024-01-11T12:28:41;6.00;;;5.50;;
12059;SDS011;6091;51.432;6.880;2024-01-11T12:31:11;7.30;;;5.40;;
12059;SDS011;6091;51.432;6.880;2024-01-11T12:33:40;5.78;;;5.20;;
12059;SDS011;6091;51.432;6.880;2024-01-11T12:36:10;6.88;;;5.35;;
12059;SDS011;6091;51.432;6.880;2024-01-11T12:38:38;5.72;;;5.20;;
12059;SDS011;6091;51.432;6.880;2024-01-11T12:41:18;5.53;;;5.03;;
12059;SDS011;6091;51.432;6.880;2024-01-11T12:43:50;5.45;;;4.95;;
12059;SDS011;6091;51.432;6.880;2024-01-11T12:46:19;6.30;;;5.50;;
12059;SDS011;6091;51.432;6.880;2024-01-11T12:48:47;6.18;;;5.25;;
12059;SDS011;6091;51.432;6.880;2024-01-11T12:51:17;6.55;;;5.05;;
12059;SDS011;6091;51.432;6.880;2024-01-11T12:53:48;5.43;;;4.93;;
12059;SDS011;6091;51.432;6.880;2024-01-11T12:56:18;7.05;;;6.35;;
12059;SDS011;6091;51.432;6.880;2024-01-11T12:58:48;8.15;;;5.50;;
12059;SDS011;6091;51.432;6.880;2024-01-11T13:01:17;6.90;;;5.82;;
12059;SDS011;6091;51.432;6.880;2024-01-11T13:03:46;6.55;;;5.88;;
12059;SDS011;6091;51.432;6.880;2024-01-11T13:06:14;6.20;;;5.60;;
12059;SDS011;6091;51.432;6.880;2024-01-11T13:08:45;7.18;;;6.53;;
12059;SDS011;6091;51.432;6.880;2024-01-11T13:11:12;6.88;;;6.18;;
12059;SDS011;6091;51.432;6.880;2024-01-11T13:13:43;6.70;;;5.97;;
12059;SDS011;6091;51.432;6.880;2024-01-11T13:16:14;6.13;;;5.55;;
12059;SDS011;6091;51.432;6.880;2024-01-11T13:18:42;7.00;;;5.40;;
12059;SDS011;6091;51.432;6.880;2024-01-11T13:21:10;5.80;;;5.18;;
12059;SDS011;6091;51.432;6.880;2024-01-11T13:23:39;6.25;;;5.65;;
12059;SDS011;6091;51.432;6.880;2024-01-11T13:26:07;6.95;;;5.55;;
12059;SDS011;6091;51.432;6.880;2024-01-11T13:28:35;6.50;;;5.40;;
12059;SDS011;6091;51.432;6.880;2024-01-11T13:31:02;6.53;;;5.60;;
12059;SDS011;6091;51.432;6.880;2024-01-11T13:33:30;5.88;;;5.28;;
12059;SDS011;6091;51.432;6.880;2024-01-11T13:35:57;6.15;;;5.63;;
12059;SDS011;6091;51.432;6.880;2024-01-11T13:38:25;5.93;;;5.35;;
12059;SDS011;6091;51.432;6.880;2024-01-11T13:40:53;7.38;;;5.53;;
12059;SDS011;6091;51.432;6.880;2024-01-11T13:43:20;6.18;;;5.18;;
12059;SDS011;6091;51.432;6.880;2024-01-11T13:45:48;5.93;;;5.43;;
12059;SDS011;6091;51.432;6.880;2024-01-11T13:48:15;6.18;;;5.60;;
12059;SDS011;6091;51.432;6.880;2024-01-11T13:50:43;5.72;;;5.05;;
12059;SDS011;6091;51.432;6.880;2024-01-11T13:53:10;6.63;;;5.35;;
12059;SDS011;6091;51.432;6.880;2024-01-11T13:55:38;5.40;;;4.90;;
12059;SDS011;6091;51.432;6.880;2024-01-11T13:58:06;5.55;;;5.05;;
12059;SDS011;6091;51.432;6.880;2024-01-11T14:00:35;5.40;;;4.90;;
12059;SDS011;6091;51.432;6.880;2024-01-11T14:03:06;5.55;;;5.05;;
12059;SDS011;6091;51.432;6.880;2024-01-11T14:05:35;5.47;;;4.97;;
12059;SDS011;6091;51.432;6.880;2024-01-11T14:08:03;5.57;;;5.07;;
12059;SDS011;6091;51.432;6.880;2024-01-11T14:10:33;5.40;;;4.90;;
12059;SDS011;6091;51.432;6.880;2024-01-11T14:13:01;4.63;;;4.22;;
12059;SDS011;6091;51.432;6.880;2024-01-11T14:15:29;6.60;;;4.65;;
12059;SDS011;6091;51.432;6.880;2024-01-11T14:17:58;5.32;;;4.63;;
12059;SDS011;6091;51.432;6.880;2024-01-11T14:20:25;6.15;;;4.47;;
12059;SDS011;6091;51.432;6.880;2024-01-11T14:22:56;4.90;;;4.40;;
12059;SDS011;6091;51.432;6.880;2024-01-11T14:25:25;4.97;;;4.47;;
12059;SDS011;6091;51.432;6.880;2024-01-11T14:27:53;4.35;;;3.95;;
12059;SDS011;6091;51.432;6.880;2024-01-11T14:30:21;4.82;;;4.32;;
12059;SDS011;6091;51.432;6.880;2024-01-11T14:32:49;4.95;;;4.55;;
12059;SDS011;6091;51.432;6.880;2024-01-11T14:35:17;5.20;;;4.60;;
12059;SDS011;6091;51.432;6.880;2024-01-11T14:37:45;5.10;;;4.63;;
12059;SDS011;6091;51.432;6.880;2024-01-11T14:40:14;4.53;;;4.13;;
12059;SDS011;6091;51.432;6.880;2024-01-11T14:42:42;5.18;;;4.30;;
12059;SDS011;6091;51.432;6.880;2024-01-11T14:45:10;4.18;;;3.78;;
12059;SDS011;6091;51.432;6.880;2024-01-11T14:47:37;5.25;;;4.85;;
12059;SDS011;6091;51.432;6.880;2024-01-11T14:50:06;4.90;;;4.40;;
12059;SDS011;6091;51.432;6.880;2024-01-11T14:52:37;4.90;;;4.47;;
12059;SDS011;6091;51.432;6.880;2024-01-11T14:55:07;4.53;;;4.10;;
12059;SDS011;6091;51.432;6.880;2024-01-11T14:57:38;5.47;;;4.80;;
12059;SDS011;6091;51.432;6.880;2024-01-11T15:00:07;5.22;;;4.35;;
12059;SDS011;6091;51.432;6.880;2024-01-11T15:02:37;4.75;;;3.97;;
12059;SDS011;6091;51.432;6.880;2024-01-11T15:05:05;4.70;;;4.25;;
12059;SDS011;6091;51.432;6.880;2024-01-11T15:07:33;4.93;;;4.53;;
12059;SDS011;6091;51.432;6.880;2024-01-11T15:10:01;4.40;;;4.00;;